sensor_id;sensor_type;location;lat;lon;timestamp;temperature;humidity
26691;DHT22;14307;51.718;8.938;2023-07-20T00:00:30;14.50;99.90
26691;DHT22;14307;51.718;8.938;2023-07-20T00:03:14;14.60;99.90
26691;DHT22;14307;51.718;8.938;2023-07-20T00:05:43;14.70;99.90
26691;DHT22;14307;51.718;8.938;2023-07-20T00:08:11;14.70;99.90
26691;DHT22;14307;51.718;8.938;2023-07-20T00:10:38;14.70;99.90
26691;DHT22;14307;51.718;8.938;2023-07-20T00:13:04;14.70;99.90
26691;DHT22;14307;51.718;8.938;2023-07-20T00:15:32;14.80;99.90
26691;DHT22;14307;51.718;8.938;2023-07-20T00:17:59;14.80;99.90
26691;DHT22;14307;51.718;8.938;2023-07-20T00:20:26;14.90;99.90
26691;DHT22;14307;51.718;8.938;2023-07-20T00:22:54;14.90;99.90
26691;DHT22;14307;51.718;8.938;2023-07-20T00:25:21;14.80;99.90
26691;DHT22;14307;51.718;8.938;2023-07-20T00:27:48;14.70;99.90
26691;DHT22;14307;51.718;8.938;2023-07-20T00:30:15;14.60;99.90
26691;DHT22;14307;51.718;8.938;2023-07-20T00:32:43;14.50;99.90
26691;DHT22;14307;51.718;8.938;2023-07-20T00:35:10;14.50;99.90
26691;DHT22;14307;51.718;8.938;2023-07-20T00:37:38;14.40;99.90
26691;DHT22;14307;51.718;8.938;2023-07-20T00:40:06;14.50;99.90
26691;DHT22;14307;51.718;8.938;2023-07-20T00:42:36;14.60;99.90
26691;DHT22;14307;51.718;8.938;2023-07-20T00:45:03;14.60;99.90
26691;DHT22;14307;51.718;8.938;2023-07-20T00:47:30;14.50;99.90
26691;DHT22;14307;51.718;8.938;2023-07-20T00:49:58;14.40;99.90
26691;DHT22;14307;51.718;8.938;2023-07-20T00:52:25;14.40;99.90
26691;DHT22;14307;51.718;8.938;2023-07-20T00:54:54;14.50;99.90
26691;DHT22;14307;51.718;8.938;2023-07-20T00:57:24;14.40;99.90
26691;DHT22;14307;51.718;8.938;2023-07-20T00:59:52;14.50;99.90
26691;DHT22;14307;51.718;8.938;2023-07-20T01:02:19;14.50;99.90
26691;DHT22;14307;51.718;8.938;2023-07-20T01:04:47;14.50;99.90
26691;DHT22;14307;51.718;8.938;2023-07-20T01:07:28;14.50;99.90
26691;DHT22;14307;51.718;8.938;2023-07-20T01:10:29;14.60;99.90
26691;DHT22;14307;51.718;8.938;2023-07-20T01:13:00;14.60;99.90
26691;DHT22;14307;51.718;8.938;2023-07-20T01:15:27;14.50;99.90
26691;DHT22;14307;51.718;8.938;2023-07-20T01:17:54;14.40;99.90
26691;DHT22;14307;51.718;8.938;2023-07-20T01:20:21;14.50;99.90
26691;DHT22;14307;51.718;8.938;2023-07-20T01:31:38;14.50;99.90
26691;DHT22;14307;51.718;8.938;2023-07-20T01:34:09;14.50;99.90
26691;DHT22;14307;51.718;8.938;2023-07-20T01:36:38;14.40;99.90
26691;DHT22;14307;51.718;8.938;2023-07-20T01:39:06;14.40;99.90
26691;DHT22;14307;51.718;8.938;2023-07-20T01:41:34;14.50;99.90
26691;DHT22;14307;51.718;8.938;2023-07-20T01:44:03;14.50;99.90
26691;DHT22;14307;51.718;8.938;2023-07-20T01:46:30;14.50;99.90
26691;DHT22;14307;51.718;8.938;2023-07-20T01:48:57;14.60;99.90
26691;DHT22;14307;51.718;8.938;2023-07-20T01:51:24;14.50;99.90
26691;DHT22;14307;51.718;8.938;2023-07-20T01:53:51;14.60;99.90
26691;DHT22;14307;51.718;8.938;2023-07-20T01:56:18;14.60;99.90
26691;DHT22;14307;51.718;8.938;2023-07-20T01:58:44;14.60;99.90
26691;DHT22;14307;51.718;8.938;2023-07-20T02:01:11;14.60;99.90
26691;DHT22;14307;51.718;8.938;2023-07-20T02:03:38;14.60;99.90
26691;DHT22;14307;51.718;8.938;2023-07-20T02:06:05;14.60;99.90
26691;DHT22;14307;51.718;8.938;2023-07-20T02:08:32;14.60;99.90
26691;DHT22;14307;51.718;8.938;2023-07-20T02:10:58;14.60;99.90
26691;DHT22;14307;51.718;8.938;2023-07-20T02:13:25;14.60;99.90
26691;DHT22;14307;51.718;8.938;2023-07-20T02:15:52;14.60;99.90
26691;DHT22;14307;51.718;8.938;2023-07-20T02:18:20;14.60;99.90
26691;DHT22;14307;51.718;8.938;2023-07-20T02:20:47;14.60;99.90
26691;DHT22;14307;51.718;8.938;2023-07-20T02:23:14;14.60;99.90
26691;DHT22;14307;51.718;8.938;2023-07-20T02:25:41;14.60;99.90
26691;DHT22;14307;51.718;8.938;2023-07-20T02:28:08;14.60;99.90
26691;DHT22;14307;51.718;8.938;2023-07-20T02:30:38;14.50;99.90
26691;DHT22;14307;51.718;8.938;2023-07-20T02:33:06;14.50;99.90
26691;DHT22;14307;51.718;8.938;2023-07-20T02:35:33;14.50;99.90
26691;DHT22;14307;51.718;8.938;2023-07-20T02:38:00;14.50;99.90
26691;DHT22;14307;51.718;8.938;2023-07-20T02:40:26;14.50;99.90
26691;DHT22;14307;51.718;8.938;2023-07-20T02:42:54;14.50;99.90
26691;DHT22;14307;51.718;8.938;2023-07-20T02:45:21;14.50;99.90
26691;DHT22;14307;51.718;8.938;2023-07-20T02:47:47;14.50;99.90
26691;DHT22;14307;51.718;8.938;2023-07-20T02:50:14;14.50;99.90
26691;DHT22;14307;51.718;8.938;2023-07-20T02:52:41;14.50;99.90
26691;DHT22;14307;51.718;8.938;2023-07-20T02:55:08;14.60;99.90
26691;DHT22;14307;51.718;8.938;2023-07-20T02:57:35;14.60;99.90
26691;DHT22;14307;51.718;8.938;2023-07-20T03:00:03;14.60;99.90
26691;DHT22;14307;51.718;8.938;2023-07-20T03:02:32;14.60;99.90
26691;DHT22;14307;51.718;8.938;2023-07-20T03:04:59;14.60;99.90
26691;DHT22;14307;51.718;8.938;2023-07-20T03:07:28;14.60;99.90
26691;DHT22;14307;51.718;8.938;2023-07-20T03:09:55;14.70;99.90
26691;DHT22;14307;51.718;8.938;2023-07-20T03:12:22;14.60;99.90
26691;DHT22;14307;51.718;8.938;2023-07-20T03:14:48;14.60;99.90
26691;DHT22;14307;51.718;8.938;2023-07-20T03:17:15;14.60;99.90
26691;DHT22;14307;51.718;8.938;2023-07-20T03:19:43;14.60;99.90
26691;DHT22;14307;51.718;8.938;2023-07-20T03:22:10;14.60;99.90
26691;DHT22;14307;51.718;8.938;2023-07-20T03:24:37;14.60;99.90
26691;DHT22;14307;51.718;8.938;2023-07-20T03:27:04;14.60;99.90
26691;DHT22;14307;51.718;8.938;2023-07-20T03:29:32;14.50;99.90
26691;DHT22;14307;51.718;8.938;2023-07-20T03:31:59;14.60;99.90
26691;DHT22;14307;51.718;8.938;2023-07-20T03:34:26;14.60;99.90
26691;DHT22;14307;51.718;8.938;2023-07-20T03:36:53;14.60;99.90
26691;DHT22;14307;51.718;8.938;2023-07-20T03:39:20;14.60;99.90
26691;DHT22;14307;51.718;8.938;2023-07-20T03:41:48;14.70;99.90
26691;DHT22;14307;51.718;8.938;2023-07-20T03:44:15;14.60;99.90
26691;DHT22;14307;51.718;8.938;2023-07-20T03:46:43;14.60;99.90
26691;DHT22;14307;51.718;8.938;2023-07-20T03:49:10;14.70;99.90
26691;DHT22;14307;51.718;8.938;2023-07-20T03:51:36;14.70;99.90
26691;DHT22;14307;51.718;8.938;2023-07-20T03:54:03;14.70;99.90
26691;DHT22;14307;51.718;8.938;2023-07-20T03:56:30;14.60;99.90
26691;DHT22;14307;51.718;8.938;2023-07-20T03:59:01;14.50;99.90
26691;DHT22;14307;51.718;8.938;2023-07-20T04:01:28;14.60;99.90
26691;DHT22;14307;51.718;8.938;2023-07-20T04:03:55;14.50;99.90
26691;DHT22;14307;51.718;8.938;2023-07-20T04:06:22;14.60;99.90
26691;DHT22;14307;51.718;8.938;2023-07-20T04:08:50;14.50;99.90
26691;DHT22;14307;51.718;8.938;2023-07-20T04:11:16;14.50;99.90
26691;DHT22;14307;51.718;8.938;2023-07-20T04:13:43;14.60;99.90
26691;DHT22;14307;51.718;8.938;2023-07-20T04:16:10;14.60;99.90
26691;DHT22;14307;51.718;8.938;2023-07-20T04:18:37;14.60;99.90
26691;DHT22;14307;51.718;8.938;2023-07-20T04:21:04;14.70;99.90
26691;DHT22;14307;51.718;8.938;2023-07-20T04:23:31;14.80;99.90
26691;DHT22;14307;51.718;8.938;2023-07-20T04:25:58;14.70;99.90
26691;DHT22;14307;51.718;8.938;2023-07-20T04:28:24;14.60;99.90
26691;DHT22;14307;51.718;8.938;2023-07-20T04:30:52;14.80;99.90
26691;DHT22;14307;51.718;8.938;2023-07-20T04:33:19;14.80;99.90
26691;DHT22;14307;51.718;8.938;2023-07-20T04:35:53;14.80;99.90
26691;DHT22;14307;51.718;8.938;2023-07-20T04:38:29;14.80;99.90
26691;DHT22;14307;51.718;8.938;2023-07-20T04:41:19;14.70;99.90
26691;DHT22;14307;51.718;8.938;2023-07-20T04:43:49;14.70;99.90
26691;DHT22;14307;51.718;8.938;2023-07-20T04:46:23;14.60;99.90
26691;DHT22;14307;51.718;8.938;2023-07-20T04:48:51;14.50;99.90
26691;DHT22;14307;51.718;8.938;2023-07-20T04:51:18;14.20;99.90
26691;DHT22;14307;51.718;8.938;2023-07-20T04:53:49;13.90;99.90
26691;DHT22;14307;51.718;8.938;2023-07-20T04:56:16;13.90;99.90
26691;DHT22;14307;51.718;8.938;2023-07-20T04:58:43;13.80;99.90
26691;DHT22;14307;51.718;8.938;2023-07-20T05:01:10;13.90;99.90
26691;DHT22;14307;51.718;8.938;2023-07-20T05:03:38;13.90;99.90
26691;DHT22;14307;51.718;8.938;2023-07-20T05:06:08;14.00;99.90
26691;DHT22;14307;51.718;8.938;2023-07-20T05:08:34;14.00;99.90
26691;DHT22;14307;51.718;8.938;2023-07-20T05:11:03;14.10;99.90
26691;DHT22;14307;51.718;8.938;2023-07-20T05:13:29;14.30;99.90
26691;DHT22;14307;51.718;8.938;2023-07-20T05:15:56;14.30;99.90
26691;DHT22;14307;51.718;8.938;2023-07-20T05:18:23;14.30;99.90
26691;DHT22;14307;51.718;8.938;2023-07-20T05:20:51;14.40;99.90
26691;DHT22;14307;51.718;8.938;2023-07-20T05:23:19;14.30;99.90
26691;DHT22;14307;51.718;8.938;2023-07-20T05:25:47;14.30;99.90
26691;DHT22;14307;51.718;8.938;2023-07-20T05:28:13;14.30;99.90
26691;DHT22;14307;51.718;8.938;2023-07-20T05:30:40;14.20;99.90
26691;DHT22;14307;51.718;8.938;2023-07-20T05:33:07;14.20;99.90
26691;DHT22;14307;51.718;8.938;2023-07-20T05:35:36;14.30;99.90
26691;DHT22;14307;51.718;8.938;2023-07-20T05:38:03;14.30;99.90
26691;DHT22;14307;51.718;8.938;2023-07-20T05:40:31;14.20;99.90
26691;DHT22;14307;51.718;8.938;2023-07-20T05:42:58;14.30;99.90
26691;DHT22;14307;51.718;8.938;2023-07-20T05:45:26;14.30;99.90
26691;DHT22;14307;51.718;8.938;2023-07-20T05:47:53;14.20;99.90
26691;DHT22;14307;51.718;8.938;2023-07-20T05:50:20;14.20;99.90
26691;DHT22;14307;51.718;8.938;2023-07-20T05:52:47;14.20;99.90
26691;DHT22;14307;51.718;8.938;2023-07-20T05:55:14;14.00;99.90
26691;DHT22;14307;51.718;8.938;2023-07-20T05:57:41;13.90;99.90
26691;DHT22;14307;51.718;8.938;2023-07-20T06:00:10;14.00;99.90
26691;DHT22;14307;51.718;8.938;2023-07-20T06:02:41;14.10;99.90
26691;DHT22;14307;51.718;8.938;2023-07-20T06:05:09;14.10;99.90
26691;DHT22;14307;51.718;8.938;2023-07-20T06:07:38;14.00;99.90
26691;DHT22;14307;51.718;8.938;2023-07-20T06:10:06;14.00;99.90
26691;DHT22;14307;51.718;8.938;2023-07-20T06:12:33;13.90;99.90
26691;DHT22;14307;51.718;8.938;2023-07-20T06:15:04;13.80;99.90
26691;DHT22;14307;51.718;8.938;2023-07-20T06:17:31;13.80;99.90
26691;DHT22;14307;51.718;8.938;2023-07-20T06:19:59;13.80;99.90
26691;DHT22;14307;51.718;8.938;2023-07-20T06:22:26;13.70;99.90
26691;DHT22;14307;51.718;8.938;2023-07-20T06:24:53;13.70;99.90
26691;DHT22;14307;51.718;8.938;2023-07-20T06:27:19;13.70;99.90
26691;DHT22;14307;51.718;8.938;2023-07-20T06:29:46;13.80;99.90
26691;DHT22;14307;51.718;8.938;2023-07-20T06:32:13;13.90;99.90
26691;DHT22;14307;51.718;8.938;2023-07-20T06:34:40;13.90;99.90
26691;DHT22;14307;51.718;8.938;2023-07-20T06:37:07;14.20;99.90
26691;DHT22;14307;51.718;8.938;2023-07-20T06:39:34;14.20;99.90
26691;DHT22;14307;51.718;8.938;2023-07-20T06:42:04;14.40;99.90
26691;DHT22;14307;51.718;8.938;2023-07-20T06:44:31;14.60;99.90
26691;DHT22;14307;51.718;8.938;2023-07-20T06:46:57;15.00;99.90
26691;DHT22;14307;51.718;8.938;2023-07-20T06:49:25;15.30;99.90
26691;DHT22;14307;51.718;8.938;2023-07-20T06:51:53;15.10;99.90
26691;DHT22;14307;51.718;8.938;2023-07-20T06:54:20;15.20;99.90
26691;DHT22;14307;51.718;8.938;2023-07-20T06:56:50;15.20;99.90
26691;DHT22;14307;51.718;8.938;2023-07-20T06:59:36;15.30;99.90
26691;DHT22;14307;51.718;8.938;2023-07-20T07:02:08;15.30;99.90
26691;DHT22;14307;51.718;8.938;2023-07-20T07:04:41;15.30;99.90
26691;DHT22;14307;51.718;8.938;2023-07-20T07:07:09;15.30;99.90
26691;DHT22;14307;51.718;8.938;2023-07-20T07:09:36;15.50;99.90
26691;DHT22;14307;51.718;8.938;2023-07-20T07:12:04;15.60;99.90
26691;DHT22;14307;51.718;8.938;2023-07-20T07:14:31;15.70;99.90
26691;DHT22;14307;51.718;8.938;2023-07-20T07:16:59;15.70;99.90
26691;DHT22;14307;51.718;8.938;2023-07-20T07:19:30;15.40;99.90
26691;DHT22;14307;51.718;8.938;2023-07-20T07:21:57;15.10;99.90
26691;DHT22;14307;51.718;8.938;2023-07-20T07:24:26;14.80;99.90
26691;DHT22;14307;51.718;8.938;2023-07-20T07:26:55;14.70;99.90
26691;DHT22;14307;51.718;8.938;2023-07-20T07:29:22;14.80;99.90
26691;DHT22;14307;51.718;8.938;2023-07-20T07:31:48;14.80;99.90
26691;DHT22;14307;51.718;8.938;2023-07-20T07:34:15;14.90;99.90
26691;DHT22;14307;51.718;8.938;2023-07-20T07:36:43;14.90;99.90
26691;DHT22;14307;51.718;8.938;2023-07-20T07:39:10;15.10;99.90
26691;DHT22;14307;51.718;8.938;2023-07-20T07:41:40;15.20;99.90
26691;DHT22;14307;51.718;8.938;2023-07-20T07:44:06;15.40;99.90
26691;DHT22;14307;51.718;8.938;2023-07-20T07:46:33;15.60;99.90
26691;DHT22;14307;51.718;8.938;2023-07-20T07:49:00;15.80;99.90
26691;DHT22;14307;51.718;8.938;2023-07-20T07:51:27;16.20;99.90
26691;DHT22;14307;51.718;8.938;2023-07-20T07:53:54;16.60;99.90
26691;DHT22;14307;51.718;8.938;2023-07-20T07:56:20;16.90;99.90
26691;DHT22;14307;51.718;8.938;2023-07-20T07:58:51;17.10;99.90
26691;DHT22;14307;51.718;8.938;2023-07-20T08:01:20;17.40;99.90
26691;DHT22;14307;51.718;8.938;2023-07-20T08:03:47;17.60;99.90
26691;DHT22;14307;51.718;8.938;2023-07-20T08:06:14;18.00;99.90
26691;DHT22;14307;51.718;8.938;2023-07-20T08:08:41;17.70;99.90
26691;DHT22;14307;51.718;8.938;2023-07-20T08:11:09;17.70;99.90
26691;DHT22;14307;51.718;8.938;2023-07-20T08:13:36;17.60;99.90
26691;DHT22;14307;51.718;8.938;2023-07-20T08:16:03;17.60;99.90
26691;DHT22;14307;51.718;8.938;2023-07-20T08:18:30;17.60;99.90
26691;DHT22;14307;51.718;8.938;2023-07-20T08:20:58;17.80;99.90
26691;DHT22;14307;51.718;8.938;2023-07-20T08:23:24;17.80;99.90
26691;DHT22;14307;51.718;8.938;2023-07-20T08:25:51;17.40;99.90
26691;DHT22;14307;51.718;8.938;2023-07-20T08:28:18;17.00;99.90
26691;DHT22;14307;51.718;8.938;2023-07-20T08:30:46;16.90;99.90
26691;DHT22;14307;51.718;8.938;2023-07-20T08:33:14;17.20;99.90
26691;DHT22;14307;51.718;8.938;2023-07-20T08:35:42;17.50;99.90
26691;DHT22;14307;51.718;8.938;2023-07-20T08:38:09;17.90;99.90
26691;DHT22;14307;51.718;8.938;2023-07-20T08:40:43;18.10;99.90
26691;DHT22;14307;51.718;8.938;2023-07-20T08:43:11;18.20;99.90
26691;DHT22;14307;51.718;8.938;2023-07-20T08:45:41;18.20;99.90
26691;DHT22;14307;51.718;8.938;2023-07-20T08:48:08;18.50;99.90
26691;DHT22;14307;51.718;8.938;2023-07-20T08:50:36;18.80;99.90
26691;DHT22;14307;51.718;8.938;2023-07-20T08:53:03;18.70;99.90
26691;DHT22;14307;51.718;8.938;2023-07-20T08:55:30;18.50;99.90
26691;DHT22;14307;51.718;8.938;2023-07-20T08:57:59;18.30;99.90
26691;DHT22;14307;51.718;8.938;2023-07-20T09:00:27;18.40;99.90
26691;DHT22;14307;51.718;8.938;2023-07-20T09:02:56;18.80;99.90
26691;DHT22;14307;51.718;8.938;2023-07-20T09:05:24;19.10;99.90
26691;DHT22;14307;51.718;8.938;2023-07-20T09:07:53;19.20;99.90
26691;DHT22;14307;51.718;8.938;2023-07-20T09:10:21;19.30;99.90
26691;DHT22;14307;51.718;8.938;2023-07-20T09:12:48;19.60;99.90
26691;DHT22;14307;51.718;8.938;2023-07-20T09:15:15;19.60;99.90
26691;DHT22;14307;51.718;8.938;2023-07-20T09:17:47;19.70;99.90
26691;DHT22;14307;51.718;8.938;2023-07-20T09:20:17;19.90;99.90
26691;DHT22;14307;51.718;8.938;2023-07-20T09:22:48;19.80;99.90
26691;DHT22;14307;51.718;8.938;2023-07-20T09:25:17;19.50;99.90
26691;DHT22;14307;51.718;8.938;2023-07-20T09:27:49;19.30;99.90
26691;DHT22;14307;51.718;8.938;2023-07-20T09:30:18;19.40;99.90
26691;DHT22;14307;51.718;8.938;2023-07-20T09:32:47;19.40;99.90
26691;DHT22;14307;51.718;8.938;2023-07-20T09:35:18;19.60;99.90
26691;DHT22;14307;51.718;8.938;2023-07-20T09:37:59;19.50;99.90
26691;DHT22;14307;51.718;8.938;2023-07-20T09:40:28;19.50;99.90
26691;DHT22;14307;51.718;8.938;2023-07-20T09:42:59;19.80;99.90
26691;DHT22;14307;51.718;8.938;2023-07-20T09:45:34;20.10;99.90
26691;DHT22;14307;51.718;8.938;2023-07-20T09:48:05;20.00;99.90
26691;DHT22;14307;51.718;8.938;2023-07-20T09:50:42;19.80;99.90
26691;DHT22;14307;51.718;8.938;2023-07-20T09:53:13;19.80;99.90
26691;DHT22;14307;51.718;8.938;2023-07-20T09:55:47;20.00;99.90
26691;DHT22;14307;51.718;8.938;2023-07-20T09:58:15;20.40;99.90
26691;DHT22;14307;51.718;8.938;2023-07-20T10:00:43;20.70;99.90
26691;DHT22;14307;51.718;8.938;2023-07-20T10:03:20;20.90;99.90
26691;DHT22;14307;51.718;8.938;2023-07-20T10:08:23;21.20;99.90
26691;DHT22;14307;51.718;8.938;2023-07-20T10:10:53;21.30;99.90
26691;DHT22;14307;51.718;8.938;2023-07-20T10:13:26;21.10;99.90
26691;DHT22;14307;51.718;8.938;2023-07-20T10:16:02;20.80;99.90
26691;DHT22;14307;51.718;8.938;2023-07-20T10:18:38;20.90;99.90
26691;DHT22;14307;51.718;8.938;2023-07-20T10:21:08;21.30;99.90
26691;DHT22;14307;51.718;8.938;2023-07-20T10:23:39;20.90;99.90
26691;DHT22;14307;51.718;8.938;2023-07-20T10:26:06;20.50;99.90
26691;DHT22;14307;51.718;8.938;2023-07-20T10:28:36;20.40;99.90
26691;DHT22;14307;51.718;8.938;2023-07-20T10:31:03;19.90;99.90
26691;DHT22;14307;51.718;8.938;2023-07-20T10:33:30;20.00;99.90
26691;DHT22;14307;51.718;8.938;2023-07-20T10:36:01;20.00;99.90
26691;DHT22;14307;51.718;8.938;2023-07-20T10:38:42;20.30;99.90
26691;DHT22;14307;51.718;8.938;2023-07-20T10:41:27;20.80;99.90
26691;DHT22;14307;51.718;8.938;2023-07-20T10:44:09;21.30;99.90
26691;DHT22;14307;51.718;8.938;2023-07-20T10:49:08;21.40;99.90
26691;DHT22;14307;51.718;8.938;2023-07-20T10:51:48;21.20;99.90
26691;DHT22;14307;51.718;8.938;2023-07-20T10:56:44;20.90;99.90
26691;DHT22;14307;51.718;8.938;2023-07-20T11:01:50;21.30;99.90
26691;DHT22;14307;51.718;8.938;2023-07-20T11:04:41;21.50;99.90
26691;DHT22;14307;51.718;8.938;2023-07-20T11:07:08;21.50;99.90
26691;DHT22;14307;51.718;8.938;2023-07-20T11:09:37;21.30;99.90
26691;DHT22;14307;51.718;8.938;2023-07-20T11:12:16;21.30;99.90
26691;DHT22;14307;51.718;8.938;2023-07-20T11:14:55;21.80;99.90
26691;DHT22;14307;51.718;8.938;2023-07-20T11:17:30;22.00;99.90
26691;DHT22;14307;51.718;8.938;2023-07-20T11:19:58;22.00;99.90
26691;DHT22;14307;51.718;8.938;2023-07-20T11:22:33;22.00;99.90
26691;DHT22;14307;51.718;8.938;2023-07-20T11:25:00;22.20;99.90
26691;DHT22;14307;51.718;8.938;2023-07-20T11:27:27;22.40;99.90
26691;DHT22;14307;51.718;8.938;2023-07-20T11:29:55;22.60;99.90
26691;DHT22;14307;51.718;8.938;2023-07-20T11:32:23;22.80;99.90
26691;DHT22;14307;51.718;8.938;2023-07-20T11:34:51;22.60;99.90
26691;DHT22;14307;51.718;8.938;2023-07-20T11:37:18;22.50;99.90
26691;DHT22;14307;51.718;8.938;2023-07-20T11:39:46;22.20;99.90
26691;DHT22;14307;51.718;8.938;2023-07-20T11:42:13;21.80;99.90
26691;DHT22;14307;51.718;8.938;2023-07-20T11:45:03;21.70;99.90
26691;DHT22;14307;51.718;8.938;2023-07-20T11:47:31;21.80;99.90
26691;DHT22;14307;51.718;8.938;2023-07-20T11:50:03;21.80;99.90
26691;DHT22;14307;51.718;8.938;2023-07-20T11:52:30;22.10;99.90
26691;DHT22;14307;51.718;8.938;2023-07-20T11:54:57;22.20;99.90
26691;DHT22;14307;51.718;8.938;2023-07-20T11:57:24;22.30;99.90
26691;DHT22;14307;51.718;8.938;2023-07-20T11:59:58;22.40;99.90
26691;DHT22;14307;51.718;8.938;2023-07-20T12:02:31;22.60;99.90
26691;DHT22;14307;51.718;8.938;2023-07-20T12:04:58;22.90;99.90
26691;DHT22;14307;51.718;8.938;2023-07-20T12:07:27;22.60;99.90
26691;DHT22;14307;51.718;8.938;2023-07-20T12:10:10;22.60;99.90
26691;DHT22;14307;51.718;8.938;2023-07-20T12:12:42;22.80;99.90
26691;DHT22;14307;51.718;8.938;2023-07-20T12:15:16;22.80;99.90
26691;DHT22;14307;51.718;8.938;2023-07-20T12:17:50;22.80;99.90
26691;DHT22;14307;51.718;8.938;2023-07-20T12:20:31;22.90;99.90
26691;DHT22;14307;51.718;8.938;2023-07-20T12:23:03;23.00;99.90
26691;DHT22;14307;51.718;8.938;2023-07-20T12:28:11;23.00;99.90
26691;DHT22;14307;51.718;8.938;2023-07-20T12:30:39;23.30;99.90
26691;DHT22;14307;51.718;8.938;2023-07-20T12:33:07;23.50;99.90
26691;DHT22;14307;51.718;8.938;2023-07-20T12:35:34;23.20;99.90
26691;DHT22;14307;51.718;8.938;2023-07-20T12:38:01;22.80;99.90
26691;DHT22;14307;51.718;8.938;2023-07-20T12:40:28;22.80;99.90
26691;DHT22;14307;51.718;8.938;2023-07-20T12:42:55;22.80;99.90
26691;DHT22;14307;51.718;8.938;2023-07-20T12:45:22;22.50;99.90
26691;DHT22;14307;51.718;8.938;2023-07-20T12:47:49;22.30;99.90
26691;DHT22;14307;51.718;8.938;2023-07-20T12:50:16;22.50;99.90
26691;DHT22;14307;51.718;8.938;2023-07-20T12:52:43;22.70;99.90
26691;DHT22;14307;51.718;8.938;2023-07-20T12:55:10;23.10;99.90
26691;DHT22;14307;51.718;8.938;2023-07-20T12:57:37;23.30;99.90
26691;DHT22;14307;51.718;8.938;2023-07-20T13:00:06;23.30;99.90
26691;DHT22;14307;51.718;8.938;2023-07-20T13:02:34;23.70;99.90
26691;DHT22;14307;51.718;8.938;2023-07-20T13:05:02;23.50;99.90
26691;DHT22;14307;51.718;8.938;2023-07-20T13:07:35;23.30;99.90
26691;DHT22;14307;51.718;8.938;2023-07-20T13:10:06;23.00;99.90
26691;DHT22;14307;51.718;8.938;2023-07-20T13:12:34;22.80;99.90
26691;DHT22;14307;51.718;8.938;2023-07-20T13:15:03;22.60;99.90
26691;DHT22;14307;51.718;8.938;2023-07-20T13:17:33;22.60;99.90
26691;DHT22;14307;51.718;8.938;2023-07-20T13:20:01;22.50;99.90
26691;DHT22;14307;51.718;8.938;2023-07-20T13:22:27;22.00;99.90
26691;DHT22;14307;51.718;8.938;2023-07-20T13:24:54;21.80;99.90
26691;DHT22;14307;51.718;8.938;2023-07-20T13:27:21;21.80;99.90
26691;DHT22;14307;51.718;8.938;2023-07-20T13:29:48;21.50;99.90
26691;DHT22;14307;51.718;8.938;2023-07-20T13:32:16;21.30;99.90
26691;DHT22;14307;51.718;8.938;2023-07-20T13:34:44;21.30;99.90
26691;DHT22;14307;51.718;8.938;2023-07-20T13:37:14;21.60;99.90
26691;DHT22;14307;51.718;8.938;2023-07-20T13:39:42;22.20;99.90
26691;DHT22;14307;51.718;8.938;2023-07-20T13:42:10;22.80;99.90
26691;DHT22;14307;51.718;8.938;2023-07-20T13:44:39;23.00;99.90
26691;DHT22;14307;51.718;8.938;2023-07-20T13:47:05;23.00;99.90
26691;DHT22;14307;51.718;8.938;2023-07-20T13:49:35;23.00;99.90
26691;DHT22;14307;51.718;8.938;2023-07-20T13:52:12;23.30;99.90
26691;DHT22;14307;51.718;8.938;2023-07-20T13:54:42;23.00;99.90
26691;DHT22;14307;51.718;8.938;2023-07-20T13:57:12;23.20;99.90
26691;DHT22;14307;51.718;8.938;2023-07-20T13:59:41;23.20;99.90
26691;DHT22;14307;51.718;8.938;2023-07-20T14:02:08;22.70;99.90
26691;DHT22;14307;51.718;8.938;2023-07-20T14:04:38;22.50;99.90
26691;DHT22;14307;51.718;8.938;2023-07-20T14:07:05;22.80;99.90
26691;DHT22;14307;51.718;8.938;2023-07-20T14:09:32;22.80;99.90
26691;DHT22;14307;51.718;8.938;2023-07-20T14:11:59;22.30;99.90
26691;DHT22;14307;51.718;8.938;2023-07-20T14:14:29;22.30;99.90
26691;DHT22;14307;51.718;8.938;2023-07-20T14:16:56;22.70;99.90
26691;DHT22;14307;51.718;8.938;2023-07-20T14:19:23;23.00;99.90
26691;DHT22;14307;51.718;8.938;2023-07-20T14:21:50;23.20;99.90
26691;DHT22;14307;51.718;8.938;2023-07-20T14:24:17;22.80;99.90
26691;DHT22;14307;51.718;8.938;2023-07-20T14:26:45;22.50;99.90
26691;DHT22;14307;51.718;8.938;2023-07-20T14:29:18;22.30;99.90
26691;DHT22;14307;51.718;8.938;2023-07-20T14:31:45;22.30;99.90
26691;DHT22;14307;51.718;8.938;2023-07-20T14:34:16;22.50;99.90
26691;DHT22;14307;51.718;8.938;2023-07-20T14:36:43;22.70;99.90
26691;DHT22;14307;51.718;8.938;2023-07-20T14:39:10;22.50;99.90
26691;DHT22;14307;51.718;8.938;2023-07-20T14:41:37;22.50;99.90
26691;DHT22;14307;51.718;8.938;2023-07-20T14:44:04;22.60;99.90
26691;DHT22;14307;51.718;8.938;2023-07-20T14:46:31;22.50;99.90
26691;DHT22;14307;51.718;8.938;2023-07-20T14:48:59;22.80;99.90
26691;DHT22;14307;51.718;8.938;2023-07-20T14:51:26;22.90;99.90
26691;DHT22;14307;51.718;8.938;2023-07-20T14:54:01;23.40;99.90
26691;DHT22;14307;51.718;8.938;2023-07-20T14:56:28;23.30;99.90
26691;DHT22;14307;51.718;8.938;2023-07-20T14:58:54;23.10;99.90
26691;DHT22;14307;51.718;8.938;2023-07-20T15:01:21;23.20;99.90
26691;DHT22;14307;51.718;8.938;2023-07-20T15:03:49;22.90;99.90
26691;DHT22;14307;51.718;8.938;2023-07-20T15:06:19;22.60;99.90
26691;DHT22;14307;51.718;8.938;2023-07-20T15:08:46;22.80;99.90
26691;DHT22;14307;51.718;8.938;2023-07-20T15:11:13;22.90;99.90
26691;DHT22;14307;51.718;8.938;2023-07-20T15:13:40;22.80;99.90
26691;DHT22;14307;51.718;8.938;2023-07-20T15:16:09;22.70;99.90
26691;DHT22;14307;51.718;8.938;2023-07-20T15:18:39;22.50;99.90
26691;DHT22;14307;51.718;8.938;2023-07-20T15:21:15;22.60;99.90
26691;DHT22;14307;51.718;8.938;2023-07-20T15:23:43;22.70;99.90
26691;DHT22;14307;51.718;8.938;2023-07-20T15:26:10;22.90;99.90
26691;DHT22;14307;51.718;8.938;2023-07-20T15:28:40;23.00;99.90
26691;DHT22;14307;51.718;8.938;2023-07-20T15:31:07;23.00;99.90
26691;DHT22;14307;51.718;8.938;2023-07-20T15:33:34;23.10;99.90
26691;DHT22;14307;51.718;8.938;2023-07-20T15:36:01;23.00;99.90
26691;DHT22;14307;51.718;8.938;2023-07-20T15:38:28;22.70;99.90
26691;DHT22;14307;51.718;8.938;2023-07-20T15:40:55;22.70;99.90
26691;DHT22;14307;51.718;8.938;2023-07-20T15:43:24;22.60;99.90
26691;DHT22;14307;51.718;8.938;2023-07-20T15:45:51;22.60;99.90
26691;DHT22;14307;51.718;8.938;2023-07-20T15:48:27;22.70;99.90
26691;DHT22;14307;51.718;8.938;2023-07-20T15:50:53;22.40;99.90
26691;DHT22;14307;51.718;8.938;2023-07-20T15:53:20;22.20;99.90
26691;DHT22;14307;51.718;8.938;2023-07-20T15:55:53;22.00;99.90
26691;DHT22;14307;51.718;8.938;2023-07-20T15:58:22;22.20;99.90
26691;DHT22;14307;51.718;8.938;2023-07-20T16:00:54;22.30;99.90